createdAt,value
2018-09-27T00:00:25.407Z,69.60
2018-09-27T00:02:54.891Z,69.70
2018-09-27T00:05:25.205Z,70.50
2018-09-27T00:07:54.760Z,69.70
2018-09-27T00:10:24.246Z,69.70
2018-09-27T00:12:53.684Z,69.80
2018-09-27T00:15:23.322Z,69.90
2018-09-27T00:17:52.896Z,69.80
2018-09-27T00:20:22.730Z,69.90
2018-09-27T00:22:52.572Z,70.00
2018-09-27T00:25:22.285Z,70.00
2018-09-27T00:27:52.533Z,70.00
2018-09-27T00:30:22.141Z,70.10
2018-09-27T00:32:51.901Z,70.10
2018-09-27T00:35:22.208Z,70.10
2018-09-27T00:37:53.718Z,70.20
2018-09-27T00:40:24.392Z,70.20
2018-09-27T00:42:53.833Z,70.20
2018-09-27T00:45:23.369Z,70.30
2018-09-27T00:47:52.803Z,70.40
2018-09-27T00:50:23.939Z,70.40
2018-09-27T00:52:53.529Z,70.40
2018-09-27T00:55:22.880Z,70.40
2018-09-27T00:57:52.323Z,71.10
2018-09-27T01:00:21.834Z,70.40
2018-09-27T01:02:52.734Z,70.30
2018-09-27T01:05:22.196Z,70.30
2018-09-27T01:07:51.638Z,70.30
2018-09-27T01:10:21.368Z,70.30
2018-09-27T01:12:51.584Z,70.30
2018-09-27T01:15:21.151Z,70.30
2018-09-27T01:17:50.627Z,70.30
2018-09-27T01:20:20.743Z,70.40
2018-09-27T01:22:51.577Z,70.40
2018-09-27T01:25:20.981Z,70.40
2018-09-27T01:27:50.617Z,70.40
2018-09-27T01:30:20.099Z,70.50
2018-09-27T01:32:50.106Z,70.50
2018-09-27T01:35:20.499Z,70.60
2018-09-27T01:37:50.145Z,70.60
2018-09-27T01:40:20.221Z,70.70
2018-09-27T01:42:50.400Z,70.60
2018-09-27T01:45:19.992Z,70.70
2018-09-27T01:47:50.228Z,70.70
2018-09-27T01:50:19.676Z,70.60
2018-09-27T01:52:49.822Z,70.60
2018-09-27T01:55:19.466Z,70.60
2018-09-27T01:57:49.258Z,70.60
2018-09-27T02:00:19.176Z,70.60
2018-09-27T02:02:48.777Z,70.60
2018-09-27T02:05:18.478Z,70.60
2018-09-27T02:07:48.033Z,70.70
2018-09-27T02:10:17.655Z,70.60
2018-09-27T02:12:48.475Z,70.70
2018-09-27T02:15:18.193Z,70.60
2018-09-27T02:17:48.535Z,70.60
2018-09-27T02:20:18.118Z,70.70
2018-09-27T02:22:48.275Z,70.80
2018-09-27T02:25:18.467Z,70.80
2018-09-27T02:27:48.201Z,70.80
2018-09-27T02:30:17.872Z,70.80
2018-09-27T02:32:47.890Z,70.90
2018-09-27T02:35:17.965Z,70.80
2018-09-27T02:37:47.471Z,70.90
2018-09-27T02:40:17.140Z,70.90
2018-09-27T02:42:46.828Z,70.80
2018-09-27T02:45:17.135Z,70.70
2018-09-27T02:47:47.228Z,70.00
2018-09-27T02:50:16.667Z,70.70
2018-09-27T02:52:47.196Z,70.60
2018-09-27T02:55:17.427Z,70.80
2018-09-27T02:57:48.200Z,70.90
2018-09-27T03:00:17.891Z,70.90
2018-09-27T03:02:47.354Z,70.90
2018-09-27T03:05:16.928Z,71.00
2018-09-27T03:07:46.446Z,71.10
2018-09-27T03:10:15.884Z,71.00
2018-09-27T03:12:45.438Z,71.10
2018-09-27T03:15:15.088Z,71.10
2018-09-27T03:17:44.666Z,70.90
2018-09-27T03:20:14.380Z,70.90
2018-09-27T03:22:43.830Z,71.10
2018-09-27T03:25:13.316Z,71.10
2018-09-27T03:27:43.059Z,71.70
2018-09-27T03:30:13.718Z,71.00
2018-09-27T03:32:43.248Z,71.10
2018-09-27T03:35:12.842Z,71.10
2018-09-27T03:37:42.588Z,71.00
2018-09-27T03:40:12.213Z,70.90
2018-09-27T03:42:41.699Z,71.00
2018-09-27T03:45:11.203Z,70.90
2018-09-27T03:47:40.833Z,70.90
2018-09-27T03:50:10.421Z,70.90
2018-09-27T03:52:40.163Z,70.90
2018-09-27T03:55:11.840Z,70.90
2018-09-27T03:57:41.765Z,71.00
2018-09-27T04:00:11.647Z,70.90
2018-09-27T04:02:42.894Z,71.00
2018-09-27T04:05:12.484Z,71.10
2018-09-27T04:07:43.123Z,71.20
2018-09-27T04:10:12.835Z,71.20
2018-09-27T04:12:43.414Z,70.50
2018-09-27T04:15:18.777Z,71.20
2018-09-27T04:17:48.447Z,71.20
2018-09-27T04:20:19.163Z,71.20
2018-09-27T04:22:49.422Z,71.30
2018-09-27T04:25:19.604Z,71.30
2018-09-27T04:27:49.913Z,71.30
2018-09-27T04:30:19.588Z,71.40
2018-09-27T04:32:51.286Z,71.40
2018-09-27T04:35:20.771Z,71.50
2018-09-27T04:37:50.952Z,72.40
2018-09-27T04:40:20.984Z,71.40
2018-09-27T04:42:50.424Z,71.40
2018-09-27T04:45:20.028Z,71.30
2018-09-27T04:47:50.377Z,71.40
2018-09-27T04:50:20.022Z,71.30
2018-09-27T04:52:49.558Z,71.30
2018-09-27T04:55:19.142Z,71.30
2018-09-27T04:57:50.436Z,71.30
2018-09-27T05:00:21.010Z,71.40
2018-09-27T05:02:50.677Z,71.30
2018-09-27T05:05:20.493Z,71.40
2018-09-27T05:07:50.303Z,71.50
2018-09-27T05:10:19.865Z,71.60
2018-09-27T05:12:50.149Z,72.20
2018-09-27T05:15:20.344Z,71.70
2018-09-27T05:17:50.270Z,71.80
2018-09-27T05:20:20.678Z,71.90
2018-09-27T05:22:50.418Z,72.00
2018-09-27T05:25:20.512Z,72.00
2018-09-27T05:27:50.852Z,72.10
2018-09-27T05:30:20.584Z,72.10
2018-09-27T05:32:50.382Z,72.10
2018-09-27T05:35:21.374Z,72.20
2018-09-27T05:37:51.689Z,72.20
2018-09-27T05:40:21.425Z,72.20
2018-09-27T05:42:51.197Z,72.20
2018-09-27T05:45:21.138Z,72.10
2018-09-27T05:47:52.242Z,73.10
2018-09-27T05:50:22.145Z,72.30
2018-09-27T05:52:52.796Z,72.50
2018-09-27T05:55:22.920Z,72.20
2018-09-27T05:57:52.402Z,72.60
2018-09-27T06:00:21.947Z,72.70
2018-09-27T06:02:52.396Z,72.80
2018-09-27T06:05:22.235Z,72.90
2018-09-27T06:07:51.947Z,72.90
2018-09-27T06:10:23.025Z,72.90
2018-09-27T06:12:52.505Z,72.90
2018-09-27T06:15:22.155Z,73.00
2018-09-27T06:17:51.680Z,73.00
2018-09-27T06:20:21.267Z,73.60
2018-09-27T06:22:51.345Z,73.10
2018-09-27T06:25:27.588Z,73.10
2018-09-27T06:27:57.298Z,72.70
2018-09-27T06:30:27.861Z,73.30
2018-09-27T06:32:57.451Z,73.20
2018-09-27T06:35:28.097Z,73.40
2018-09-27T06:37:58.649Z,73.50
2018-09-27T06:40:28.301Z,73.40
2018-09-27T06:42:57.962Z,73.50
2018-09-27T06:45:27.750Z,73.70
2018-09-27T06:47:57.713Z,73.80
2018-09-27T06:50:27.366Z,74.30
2018-09-27T06:52:57.764Z,74.10
2018-09-27T06:55:28.920Z,74.10
2018-09-27T06:57:59.212Z,74.30
2018-09-27T07:00:29.294Z,74.60
2018-09-27T07:02:59.498Z,74.90
2018-09-27T07:05:29.628Z,75.20
2018-09-27T07:07:59.446Z,75.20
2018-09-27T07:10:29.052Z,75.40
2018-09-27T07:12:59.873Z,74.80
2018-09-27T07:15:31.709Z,75.30
2018-09-27T07:18:02.575Z,75.40
2018-09-27T07:20:32.434Z,75.40
2018-09-27T07:23:02.246Z,74.10
2018-09-27T07:25:36.924Z,74.10
2018-09-27T07:28:06.971Z,74.00
2018-09-27T07:30:36.887Z,74.00
2018-09-27T07:33:07.712Z,73.80
2018-09-27T07:35:37.792Z,73.80
2018-09-27T07:38:08.709Z,73.60
2018-09-27T07:40:38.380Z,73.60
2018-09-27T07:43:08.518Z,73.40
2018-09-27T07:45:38.351Z,73.30
2018-09-27T07:48:07.903Z,73.10
2018-09-27T07:50:39.272Z,73.30
2018-09-27T07:53:09.013Z,73.20
2018-09-27T07:55:39.136Z,73.10
2018-09-27T07:58:11.605Z,73.10
2018-09-27T08:00:41.213Z,73.10
2018-09-27T08:03:10.971Z,73.00
2018-09-27T08:05:41.619Z,72.90
2018-09-27T08:08:11.832Z,72.80
2018-09-27T08:10:41.515Z,72.60
2018-09-27T08:13:11.589Z,72.50
2018-09-27T08:15:41.676Z,72.40
2018-09-27T08:18:11.286Z,72.20
2018-09-27T08:20:41.081Z,72.00
2018-09-27T08:23:10.440Z,71.70
2018-09-27T08:25:40.681Z,71.60
2018-09-27T08:28:11.124Z,71.50
2018-09-27T08:30:42.485Z,71.40
2018-09-27T08:33:11.819Z,71.20
2018-09-27T08:35:41.421Z,71.10
2018-09-27T08:38:10.842Z,70.80
2018-09-27T08:40:40.951Z,70.50
2018-09-27T08:43:10.918Z,70.40
2018-09-27T08:45:40.673Z,70.10
2018-09-27T08:48:10.723Z,69.60
2018-09-27T08:50:41.226Z,69.10
2018-09-27T08:53:11.119Z,68.70
2018-09-27T08:55:40.860Z,69.30
2018-09-27T08:58:11.257Z,68.20
2018-09-27T09:00:40.787Z,67.80
2018-09-27T09:03:11.539Z,67.50
2018-09-27T09:05:41.251Z,67.10
2018-09-27T09:08:10.952Z,66.50
2018-09-27T09:10:41.195Z,66.20
2018-09-27T09:13:10.968Z,65.80
2018-09-27T09:15:41.636Z,65.30
2018-09-27T09:18:11.734Z,65.00
2018-09-27T09:20:41.266Z,64.80
2018-09-27T09:23:11.571Z,64.60
2018-09-27T09:25:41.177Z,64.30
2018-09-27T09:28:10.639Z,63.90
2018-09-27T09:30:40.156Z,63.50
2018-09-27T09:33:11.020Z,63.20
2018-09-27T09:35:40.541Z,62.80
2018-09-27T09:38:10.114Z,62.60
2018-09-27T09:40:39.722Z,62.30
2018-09-27T09:43:09.208Z,61.80
2018-09-27T09:45:39.251Z,61.10
2018-09-27T09:48:09.464Z,60.60
2018-09-27T09:50:39.224Z,60.00
2018-09-27T09:53:08.852Z,59.60
2018-09-27T09:55:38.494Z,59.20
2018-09-27T09:58:08.980Z,58.80
2018-09-27T10:00:38.988Z,58.40
2018-09-27T10:03:09.412Z,58.00
2018-09-27T10:05:39.218Z,57.60
2018-09-27T10:08:09.544Z,57.10
2018-09-27T10:10:39.109Z,56.60
2018-09-27T10:13:09.135Z,56.10
2018-09-27T10:15:38.605Z,55.80
2018-09-27T10:18:09.202Z,55.50
2018-09-27T10:20:39.897Z,55.30
2018-09-27T10:23:10.725Z,54.90
2018-09-27T10:25:41.234Z,54.50
2018-09-27T10:28:11.182Z,54.20
2018-09-27T10:30:41.900Z,53.80
2018-09-27T10:33:11.380Z,53.60
2018-09-27T10:35:41.027Z,53.20
2018-09-27T10:38:13.233Z,52.80
2018-09-27T10:40:43.172Z,53.20
2018-09-27T10:43:12.686Z,52.40
2018-09-27T10:45:43.252Z,52.30
2018-09-27T10:48:12.772Z,52.00
2018-09-27T10:50:46.514Z,51.50
2018-09-27T10:53:16.054Z,51.10
2018-09-27T10:55:47.134Z,50.90
2018-09-27T10:58:17.818Z,50.50
2018-09-27T11:00:47.588Z,50.10
2018-09-27T11:03:18.244Z,49.90
2018-09-27T11:05:48.365Z,49.70
2018-09-27T11:08:18.310Z,49.40
2018-09-27T11:10:48.018Z,49.00
2018-09-27T11:13:17.595Z,48.40
2018-09-27T11:15:48.175Z,48.10
2018-09-27T11:18:18.161Z,47.80
2018-09-27T11:20:49.250Z,47.50
2018-09-27T11:23:19.628Z,46.90
2018-09-27T11:25:49.617Z,46.40
2018-09-27T11:28:20.384Z,45.80
2018-09-27T11:31:54.019Z,45.40
2018-09-27T11:34:23.650Z,45.40
2018-09-27T11:36:53.250Z,45.70
2018-09-27T11:39:24.165Z,45.40
2018-09-27T11:41:53.969Z,45.10
2018-09-27T11:44:23.723Z,44.80
2018-09-27T11:46:53.380Z,44.40
2018-09-27T11:49:22.864Z,44.10
2018-09-27T11:51:53.326Z,43.80
2018-09-27T11:54:23.277Z,43.60
2018-09-27T11:56:52.746Z,43.30
2018-09-27T11:59:22.604Z,43.10
2018-09-27T12:01:52.263Z,42.80
2018-09-27T12:04:21.794Z,42.60
2018-09-27T12:06:51.585Z,42.50
2018-09-27T12:09:21.097Z,42.10
2018-09-27T12:11:50.751Z,41.80
2018-09-27T12:14:20.750Z,41.40
2018-09-27T12:16:51.240Z,41.10
2018-09-27T12:19:21.609Z,41.10
2018-09-27T12:21:53.121Z,41.30
2018-09-27T12:26:59.073Z,41.40
2018-09-27T12:29:28.817Z,42.50
2018-09-27T12:31:58.410Z,42.40
2018-09-27T12:34:28.165Z,42.00
2018-09-27T12:36:58.249Z,41.60
2018-09-27T12:39:27.852Z,41.90
2018-09-27T12:41:58.380Z,40.90
2018-09-27T12:44:27.722Z,40.60
2018-09-27T12:46:57.374Z,41.00
2018-09-27T12:49:26.871Z,40.20
2018-09-27T12:51:56.633Z,39.80
2018-09-27T12:54:26.853Z,39.70
2018-09-27T12:56:56.424Z,39.60
2018-09-27T12:59:26.055Z,39.50
2018-09-27T13:01:55.798Z,39.30
2018-09-27T13:04:25.273Z,38.80
2018-09-27T13:06:55.040Z,38.40
2018-09-27T13:09:24.756Z,38.00
2018-09-27T13:11:54.192Z,37.80
2018-09-27T13:14:24.075Z,37.70
2018-09-27T13:16:54.001Z,37.50
2018-09-27T13:19:23.588Z,37.30
2018-09-27T13:21:53.781Z,37.10
2018-09-27T13:24:23.807Z,36.90
2018-09-27T13:26:54.273Z,37.10
2018-09-27T13:29:23.812Z,36.40
2018-09-27T13:31:53.441Z,36.30
2018-09-27T13:34:23.077Z,36.10
2018-09-27T13:36:52.803Z,35.90
2018-09-27T13:39:23.571Z,35.70
2018-09-27T13:41:53.301Z,35.40
2018-09-27T13:44:23.803Z,35.20
2018-09-27T13:46:53.556Z,35.00
2018-09-27T13:49:23.136Z,34.80
2018-09-27T13:51:52.666Z,34.90
2018-09-27T13:54:23.270Z,34.90
2018-09-27T13:56:52.829Z,34.60
2018-09-27T13:59:22.908Z,34.30
2018-09-27T14:01:52.985Z,34.20
2018-09-27T14:04:22.408Z,34.00
2018-09-27T14:06:51.924Z,33.60
2018-09-27T14:09:21.589Z,33.40
2018-09-27T14:11:51.833Z,33.00
2018-09-27T14:14:21.460Z,32.90
2018-09-27T14:16:51.738Z,32.80
2018-09-27T14:19:22.247Z,32.70
2018-09-27T14:21:51.903Z,32.50
2018-09-27T14:24:22.274Z,32.40
2018-09-27T14:26:52.449Z,32.40
2018-09-27T14:29:22.320Z,32.10
2018-09-27T14:31:52.156Z,31.90
2018-09-27T14:34:24.377Z,31.80
2018-09-27T14:36:54.666Z,31.90
2018-09-27T14:39:24.622Z,32.00
2018-09-27T14:41:54.321Z,31.90
2018-09-27T14:44:24.459Z,31.80
2018-09-27T14:46:54.559Z,31.80
2018-09-27T14:49:28.920Z,31.80
2018-09-27T14:51:58.920Z,32.00
2018-09-27T14:54:33.144Z,32.10
2018-09-27T14:57:04.032Z,32.10
2018-09-27T14:59:34.037Z,32.70
2018-09-27T15:02:04.480Z,31.90
2018-09-27T15:04:34.639Z,32.00
2018-09-27T15:07:04.295Z,32.40
2018-09-27T15:09:34.102Z,32.80
2018-09-27T15:12:03.533Z,33.10
2018-09-27T15:14:33.571Z,33.40
2018-09-27T15:17:03.063Z,33.60
2018-09-27T15:19:33.283Z,33.70
2018-09-27T15:22:03.051Z,34.00
2018-09-27T15:24:33.238Z,34.30
2018-09-27T15:27:03.482Z,34.90
2018-09-27T15:29:33.313Z,35.50
2018-09-27T15:32:03.429Z,35.90
2018-09-27T15:34:33.284Z,36.30
2018-09-27T15:37:03.478Z,36.80
2018-09-27T15:39:33.968Z,37.20
2018-09-27T15:42:03.412Z,37.50
2018-09-27T15:44:33.214Z,37.90
2018-09-27T15:47:03.470Z,38.50
2018-09-27T15:49:33.387Z,39.00
2018-09-27T15:52:03.910Z,39.50
2018-09-27T15:54:35.489Z,40.00
2018-09-27T15:57:06.990Z,40.50
2018-09-27T15:59:37.159Z,41.10
2018-09-27T16:02:07.645Z,41.60
2018-09-27T16:04:37.561Z,42.20
2018-09-27T16:07:08.002Z,42.80
2018-09-27T16:09:37.803Z,44.10
2018-09-27T16:12:07.681Z,43.80
2018-09-27T16:14:37.261Z,44.40
2018-09-27T16:17:07.563Z,44.90
2018-09-27T16:19:37.621Z,45.40
2018-09-27T16:22:07.509Z,45.80
2018-09-27T16:24:37.450Z,46.20
2018-09-27T16:27:12.159Z,46.70
2018-09-27T16:29:45.107Z,47.10
2018-09-27T16:32:14.662Z,47.50
2018-09-27T16:34:45.669Z,47.80
2018-09-27T16:37:19.159Z,48.30
2018-09-27T16:39:49.105Z,48.70
2018-09-27T16:42:19.447Z,49.00
2018-09-27T16:44:55.133Z,49.30
2018-09-27T16:47:24.859Z,49.70
2018-09-27T16:49:56.057Z,50.00
2018-09-27T16:52:25.712Z,50.40
2018-09-27T16:54:57.630Z,50.70
2018-09-27T16:57:29.049Z,51.00
2018-09-27T16:59:59.846Z,51.20
2018-09-27T17:02:30.272Z,51.30
2018-09-27T17:05:01.027Z,51.50
2018-09-27T17:07:32.023Z,51.60
2018-09-27T17:10:04.437Z,52.40
2018-09-27T17:12:34.228Z,52.10
2018-09-27T17:15:17.232Z,52.20
2018-09-27T17:17:48.680Z,53.10
2018-09-27T17:20:18.606Z,52.60
2018-09-27T17:22:52.678Z,52.80
2018-09-27T17:25:23.806Z,53.10
2018-09-27T17:27:55.335Z,53.30
2018-09-27T17:30:26.880Z,53.60
2018-09-27T17:32:57.631Z,53.90
2018-09-27T17:35:36.343Z,54.70
2018-09-27T17:38:06.180Z,54.40
2018-09-27T17:40:38.820Z,54.50
2018-09-27T17:43:10.843Z,54.70
2018-09-27T17:45:52.842Z,54.90
2018-09-27T17:48:22.994Z,55.10
2018-09-27T17:50:53.005Z,55.10
2018-09-27T17:53:24.571Z,55.40
2018-09-27T17:55:56.420Z,55.50
2018-09-27T17:58:29.190Z,55.70
2018-09-27T18:01:04.289Z,55.80
2018-09-27T18:03:54.649Z,55.90
2018-09-27T18:06:25.183Z,56.10
2018-09-27T18:08:55.545Z,56.20
2018-09-27T18:11:25.471Z,56.40
2018-09-27T18:13:57.207Z,56.60
2018-09-27T18:16:28.258Z,56.80
2018-09-27T18:19:00.401Z,56.90
2018-09-27T18:21:30.575Z,57.00
2018-09-27T18:24:01.087Z,57.20
2018-09-27T18:26:30.908Z,57.30
2018-09-27T18:29:01.086Z,57.50
2018-09-27T18:31:32.773Z,57.70
2018-09-27T18:34:05.666Z,57.80
2018-09-27T18:36:35.586Z,57.90
2018-09-27T18:39:11.255Z,57.90
2018-09-27T18:41:41.432Z,58.10
2018-09-27T18:44:12.864Z,58.20
2018-09-27T18:46:43.863Z,58.30
2018-09-27T18:49:13.820Z,58.30
2018-09-27T18:51:48.753Z,59.00
2018-09-27T18:54:20.024Z,58.50
2018-09-27T18:56:50.006Z,58.60
2018-09-27T18:59:22.482Z,58.80
2018-09-27T19:01:59.074Z,58.90
2018-09-27T19:04:31.683Z,58.90
2018-09-27T19:07:01.620Z,59.10
2018-09-27T19:09:31.752Z,59.10
2018-09-27T19:12:02.849Z,59.20
2018-09-27T19:14:33.009Z,59.40
2018-09-27T19:17:03.777Z,59.50
2018-09-27T19:19:34.462Z,59.60
2018-09-27T19:22:06.376Z,59.80
2018-09-27T19:24:38.052Z,59.90
2018-09-27T19:27:08.417Z,60.00
2018-09-27T19:29:41.577Z,60.20
2018-09-27T19:32:12.695Z,60.30
2018-09-27T19:34:47.273Z,60.50
2018-09-27T19:37:16.895Z,60.50
2018-09-27T19:39:46.623Z,60.50
2018-09-27T19:42:16.348Z,60.70
2018-09-27T19:44:45.959Z,60.80
2018-09-27T19:47:15.807Z,60.90
2018-09-27T19:49:45.408Z,61.00
2018-09-27T19:52:19.612Z,61.10
2018-09-27T19:54:49.400Z,61.20
2018-09-27T19:57:19.335Z,61.20
2018-09-27T19:59:50.116Z,61.20
2018-09-27T20:02:20.291Z,61.20
2018-09-27T20:04:50.194Z,61.30
2018-09-27T20:07:20.274Z,61.40
2018-09-27T20:09:50.725Z,61.40
2018-09-27T20:12:22.049Z,61.50
2018-09-27T20:14:51.520Z,61.60
2018-09-27T20:17:21.561Z,61.60
2018-09-27T20:19:51.470Z,61.60
2018-09-27T20:22:21.287Z,61.60
2018-09-27T20:24:51.574Z,61.70
2018-09-27T20:27:22.184Z,61.80
2018-09-27T20:29:53.861Z,61.90
2018-09-27T20:32:23.836Z,62.00
2018-09-27T20:34:53.503Z,62.10
2018-09-27T20:37:23.106Z,62.10
2018-09-27T20:39:52.763Z,62.20
2018-09-27T20:42:22.595Z,62.30
2018-09-27T20:44:52.143Z,62.30
2018-09-27T20:47:23.013Z,62.50
2018-09-27T20:49:52.566Z,62.50
2018-09-27T20:52:23.349Z,62.60
2018-09-27T20:54:53.159Z,62.60
2018-09-27T20:57:22.621Z,62.70
2018-09-27T20:59:52.406Z,62.80
2018-09-27T21:02:22.243Z,62.90
2018-09-27T21:04:52.055Z,63.00
2018-09-27T21:07:21.825Z,62.90
2018-09-27T21:09:51.523Z,63.10
2018-09-27T21:12:21.029Z,63.20
2018-09-27T21:14:50.540Z,63.40
2018-09-27T21:17:20.179Z,63.40
2018-09-27T21:19:49.729Z,63.50
2018-09-27T21:22:19.743Z,63.70
2018-09-27T21:24:49.161Z,63.70
2018-09-27T21:27:18.802Z,63.70
2018-09-27T21:29:48.425Z,63.80
2018-09-27T21:32:20.771Z,63.90
2018-09-27T21:34:51.008Z,64.00
2018-09-27T21:37:20.671Z,64.00
2018-09-27T21:39:51.008Z,64.00
2018-09-27T21:42:20.709Z,64.10
2018-09-27T21:44:50.549Z,64.20
2018-09-27T21:47:20.816Z,65.40
2018-09-27T21:49:50.402Z,65.40
2018-09-27T21:52:20.240Z,65.40
2018-09-27T21:54:49.792Z,66.50
2018-09-27T21:57:19.325Z,65.60
2018-09-27T21:59:48.877Z,65.50
2018-09-27T22:02:19.152Z,65.60
2018-09-27T22:04:48.787Z,65.60
2018-09-27T22:07:19.352Z,65.80
2018-09-27T22:09:48.927Z,65.80
2018-09-27T22:12:19.181Z,65.90
2018-09-27T22:14:49.754Z,65.90
2018-09-27T22:17:20.287Z,66.00
2018-09-27T22:19:55.567Z,66.00
2018-09-27T22:22:25.091Z,66.10
2018-09-27T22:24:54.807Z,66.10
2018-09-27T22:27:25.559Z,66.10
2018-09-27T22:29:55.695Z,66.20
2018-09-27T22:32:25.425Z,66.30
2018-09-27T22:34:55.699Z,66.40
2018-09-27T22:37:26.060Z,66.40
2018-09-27T22:39:55.688Z,66.40
2018-09-27T22:42:26.200Z,66.50
2018-09-27T22:44:55.673Z,66.60
2018-09-27T22:47:25.368Z,66.70
2018-09-27T22:49:54.889Z,66.80
2018-09-27T22:52:24.426Z,66.80
2018-09-27T22:54:55.557Z,66.80
2018-09-27T22:57:25.208Z,67.00
2018-09-27T22:59:55.630Z,67.00
2018-09-27T23:02:25.370Z,67.10
2018-09-27T23:04:55.590Z,67.10
2018-09-27T23:07:25.348Z,67.20
2018-09-27T23:09:55.284Z,67.30
2018-09-27T23:12:25.600Z,67.50
2018-09-27T23:14:55.182Z,67.80
2018-09-27T23:17:25.323Z,68.00
2018-09-27T23:19:54.922Z,68.30
2018-09-27T23:22:26.580Z,68.50
2018-09-27T23:24:56.972Z,69.50
2018-09-27T23:27:26.515Z,68.60
2018-09-27T23:29:56.054Z,68.80
2018-09-27T23:32:25.949Z,68.90
2018-09-27T23:34:55.532Z,67.80
2018-09-27T23:37:25.781Z,67.80
2018-09-27T23:39:56.371Z,67.80
2018-09-27T23:42:26.063Z,68.00
2018-09-27T23:44:55.877Z,68.10
2018-09-27T23:47:25.490Z,68.30
2018-09-27T23:49:55.672Z,68.30
2018-09-27T23:52:25.217Z,68.40
2018-09-27T23:54:54.936Z,68.70
2018-09-27T23:57:24.386Z,68.70
2018-09-27T23:59:53.967Z,68.70
